sensor_id;sensor_type;location;lat;lon;timestamp;temperature;humidity
45012;DHT22;63444;48.148;11.542;2023-04-24T00:01:24;12.10;99.90
45012;DHT22;63444;48.148;11.542;2023-04-24T00:03:49;12.10;99.90
45012;DHT22;63444;48.148;11.542;2023-04-24T00:06:15;12.10;99.90
45012;DHT22;63444;48.148;11.542;2023-04-24T00:08:42;12.10;99.90
45012;DHT22;63444;48.148;11.542;2023-04-24T00:11:08;12.10;99.90
45012;DHT22;63444;48.148;11.542;2023-04-24T00:13:35;12.20;99.90
45012;DHT22;63444;48.148;11.542;2023-04-24T00:16:00;12.20;99.90
45012;DHT22;63444;48.148;11.542;2023-04-24T00:18:26;12.10;99.90
45012;DHT22;63444;48.148;11.542;2023-04-24T00:20:52;12.10;99.90
45012;DHT22;63444;48.148;11.542;2023-04-24T00:23:17;12.10;99.90
45012;DHT22;63444;48.148;11.542;2023-04-24T00:25:43;12.10;99.90
45012;DHT22;63444;48.148;11.542;2023-04-24T00:28:08;12.20;99.90
45012;DHT22;63444;48.148;11.542;2023-04-24T00:30:34;12.10;99.90
45012;DHT22;63444;48.148;11.542;2023-04-24T00:33:00;12.00;99.90
45012;DHT22;63444;48.148;11.542;2023-04-24T00:35:25;12.00;99.90
45012;DHT22;63444;48.148;11.542;2023-04-24T00:37:51;12.00;99.90
45012;DHT22;63444;48.148;11.542;2023-04-24T00:40:17;11.90;99.90
45012;DHT22;63444;48.148;11.542;2023-04-24T00:42:43;11.90;99.90
45012;DHT22;63444;48.148;11.542;2023-04-24T00:45:09;11.70;99.90
45012;DHT22;63444;48.148;11.542;2023-04-24T00:47:35;11.70;99.90
45012;DHT22;63444;48.148;11.542;2023-04-24T00:50:02;11.70;99.90
45012;DHT22;63444;48.148;11.542;2023-04-24T00:52:28;11.70;99.90
45012;DHT22;63444;48.148;11.542;2023-04-24T00:54:56;11.80;99.90
45012;DHT22;63444;48.148;11.542;2023-04-24T00:57:22;11.60;99.90
45012;DHT22;63444;48.148;11.542;2023-04-24T00:59:49;11.50;99.90
45012;DHT22;63444;48.148;11.542;2023-04-24T01:02:15;11.60;99.90
45012;DHT22;63444;48.148;11.542;2023-04-24T01:04:42;11.60;99.90
45012;DHT22;63444;48.148;11.542;2023-04-24T01:07:08;11.50;99.90
45012;DHT22;63444;48.148;11.542;2023-04-24T01:09:38;11.70;99.90
45012;DHT22;63444;48.148;11.542;2023-04-24T01:12:05;11.60;99.90
45012;DHT22;63444;48.148;11.542;2023-04-24T01:14:31;11.50;99.90
45012;DHT22;63444;48.148;11.542;2023-04-24T01:16:57;11.70;99.90
45012;DHT22;63444;48.148;11.542;2023-04-24T01:19:23;11.50;99.90
45012;DHT22;63444;48.148;11.542;2023-04-24T01:21:50;11.50;99.90
45012;DHT22;63444;48.148;11.542;2023-04-24T01:24:16;11.60;99.90
45012;DHT22;63444;48.148;11.542;2023-04-24T01:26:44;11.40;99.90
45012;DHT22;63444;48.148;11.542;2023-04-24T01:29:09;11.30;99.90
45012;DHT22;63444;48.148;11.542;2023-04-24T01:31:35;11.30;99.90
45012;DHT22;63444;48.148;11.542;2023-04-24T01:34:02;11.30;99.90
45012;DHT22;63444;48.148;11.542;2023-04-24T01:36:28;11.30;99.90
45012;DHT22;63444;48.148;11.542;2023-04-24T01:38:55;11.30;99.90
45012;DHT22;63444;48.148;11.542;2023-04-24T01:41:21;11.30;99.90
45012;DHT22;63444;48.148;11.542;2023-04-24T01:43:48;11.30;99.90
45012;DHT22;63444;48.148;11.542;2023-04-24T01:46:14;11.20;99.90
45012;DHT22;63444;48.148;11.542;2023-04-24T01:48:40;11.20;99.90
45012;DHT22;63444;48.148;11.542;2023-04-24T01:51:06;11.20;99.90
45012;DHT22;63444;48.148;11.542;2023-04-24T01:53:32;11.20;99.90
45012;DHT22;63444;48.148;11.542;2023-04-24T01:55:58;11.20;99.90
45012;DHT22;63444;48.148;11.542;2023-04-24T01:58:23;11.20;99.90
45012;DHT22;63444;48.148;11.542;2023-04-24T02:00:49;11.20;99.90
45012;DHT22;63444;48.148;11.542;2023-04-24T02:03:15;11.10;99.90
45012;DHT22;63444;48.148;11.542;2023-04-24T02:05:43;11.00;99.90
45012;DHT22;63444;48.148;11.542;2023-04-24T02:08:09;11.20;99.90
45012;DHT22;63444;48.148;11.542;2023-04-24T02:10:35;11.10;99.90
45012;DHT22;63444;48.148;11.542;2023-04-24T02:13:01;11.30;99.90
45012;DHT22;63444;48.148;11.542;2023-04-24T02:15:26;11.10;99.90
45012;DHT22;63444;48.148;11.542;2023-04-24T02:17:52;11.10;99.90
45012;DHT22;63444;48.148;11.542;2023-04-24T02:20:17;11.10;99.90
45012;DHT22;63444;48.148;11.542;2023-04-24T02:22:43;11.20;99.90
45012;DHT22;63444;48.148;11.542;2023-04-24T02:25:09;11.10;99.90
45012;DHT22;63444;48.148;11.542;2023-04-24T02:27:34;11.10;99.90
45012;DHT22;63444;48.148;11.542;2023-04-24T02:30:00;11.00;99.90
45012;DHT22;63444;48.148;11.542;2023-04-24T02:32:26;10.90;99.90
45012;DHT22;63444;48.148;11.542;2023-04-24T02:34:51;10.90;99.90
45012;DHT22;63444;48.148;11.542;2023-04-24T02:37:17;10.90;99.90
45012;DHT22;63444;48.148;11.542;2023-04-24T02:39:42;10.90;99.90
45012;DHT22;63444;48.148;11.542;2023-04-24T02:42:08;10.90;99.90
45012;DHT22;63444;48.148;11.542;2023-04-24T02:44:33;10.90;99.90
45012;DHT22;63444;48.148;11.542;2023-04-24T02:46:59;10.90;99.90
45012;DHT22;63444;48.148;11.542;2023-04-24T02:49:25;10.90;99.90
45012;DHT22;63444;48.148;11.542;2023-04-24T02:51:51;10.80;99.90
45012;DHT22;63444;48.148;11.542;2023-04-24T02:54:16;10.90;99.90
45012;DHT22;63444;48.148;11.542;2023-04-24T02:56:42;10.80;99.90
45012;DHT22;63444;48.148;11.542;2023-04-24T02:59:08;10.80;99.90
45012;DHT22;63444;48.148;11.542;2023-04-24T03:01:33;10.80;99.90
45012;DHT22;63444;48.148;11.542;2023-04-24T03:03:59;11.00;99.90
45012;DHT22;63444;48.148;11.542;2023-04-24T03:06:25;10.80;99.90
45012;DHT22;63444;48.148;11.542;2023-04-24T03:08:52;10.80;99.90
45012;DHT22;63444;48.148;11.542;2023-04-24T03:11:18;10.80;99.90
45012;DHT22;63444;48.148;11.542;2023-04-24T03:13:43;10.90;99.90
45012;DHT22;63444;48.148;11.542;2023-04-24T03:16:09;10.80;99.90
45012;DHT22;63444;48.148;11.542;2023-04-24T03:18:34;10.80;99.90
45012;DHT22;63444;48.148;11.542;2023-04-24T03:21:00;10.70;99.90
45012;DHT22;63444;48.148;11.542;2023-04-24T03:23:26;10.70;99.90
45012;DHT22;63444;48.148;11.542;2023-04-24T03:25:51;10.70;99.90
45012;DHT22;63444;48.148;11.542;2023-04-24T03:28:17;10.60;99.90
45012;DHT22;63444;48.148;11.542;2023-04-24T03:30:43;10.60;99.90
45012;DHT22;63444;48.148;11.542;2023-04-24T03:33:08;10.60;99.90
45012;DHT22;63444;48.148;11.542;2023-04-24T03:35:35;10.60;99.90
45012;DHT22;63444;48.148;11.542;2023-04-24T03:38:01;10.80;99.90
45012;DHT22;63444;48.148;11.542;2023-04-24T03:40:27;10.50;99.90
45012;DHT22;63444;48.148;11.542;2023-04-24T03:42:54;10.50;99.90
45012;DHT22;63444;48.148;11.542;2023-04-24T03:45:20;10.50;99.90
45012;DHT22;63444;48.148;11.542;2023-04-24T03:47:46;10.50;99.90
45012;DHT22;63444;48.148;11.542;2023-04-24T03:50:12;10.60;99.90
45012;DHT22;63444;48.148;11.542;2023-04-24T03:52:37;10.80;99.90
45012;DHT22;63444;48.148;11.542;2023-04-24T03:55:03;10.40;99.90
45012;DHT22;63444;48.148;11.542;2023-04-24T03:57:29;10.60;99.90
45012;DHT22;63444;48.148;11.542;2023-04-24T03:59:54;10.60;99.90
45012;DHT22;63444;48.148;11.542;2023-04-24T04:02:20;10.60;99.90
45012;DHT22;63444;48.148;11.542;2023-04-24T04:04:46;10.60;99.90
45012;DHT22;63444;48.148;11.542;2023-04-24T04:07:11;10.60;99.90
45012;DHT22;63444;48.148;11.542;2023-04-24T04:09:38;10.50;99.90
45012;DHT22;63444;48.148;11.542;2023-04-24T04:12:04;10.60;99.90
45012;DHT22;63444;48.148;11.542;2023-04-24T04:14:29;10.70;99.90
45012;DHT22;63444;48.148;11.542;2023-04-24T04:16:55;10.50;99.90
45012;DHT22;63444;48.148;11.542;2023-04-24T04:19:21;10.50;99.90
45012;DHT22;63444;48.148;11.542;2023-04-24T04:21:46;10.40;99.90
45012;DHT22;63444;48.148;11.542;2023-04-24T04:24:17;10.50;99.90
45012;DHT22;63444;48.148;11.542;2023-04-24T04:26:43;10.50;99.90
45012;DHT22;63444;48.148;11.542;2023-04-24T04:29:11;10.40;99.90
45012;DHT22;63444;48.148;11.542;2023-04-24T04:31:37;10.40;99.90
45012;DHT22;63444;48.148;11.542;2023-04-24T04:34:02;10.30;99.90
45012;DHT22;63444;48.148;11.542;2023-04-24T04:36:28;10.40;99.90
45012;DHT22;63444;48.148;11.542;2023-04-24T04:38:54;10.30;99.90
45012;DHT22;63444;48.148;11.542;2023-04-24T04:41:20;10.40;99.90
45012;DHT22;63444;48.148;11.542;2023-04-24T04:43:46;10.40;99.90
45012;DHT22;63444;48.148;11.542;2023-04-24T04:46:12;10.40;99.90
45012;DHT22;63444;48.148;11.542;2023-04-24T04:48:38;10.50;99.90
45012;DHT22;63444;48.148;11.542;2023-04-24T04:51:05;10.40;99.90
45012;DHT22;63444;48.148;11.542;2023-04-24T04:53:30;10.40;99.90
45012;DHT22;63444;48.148;11.542;2023-04-24T04:55:56;10.40;99.90
45012;DHT22;63444;48.148;11.542;2023-04-24T04:58:22;10.40;99.90
45012;DHT22;63444;48.148;11.542;2023-04-24T05:00:47;10.40;99.90
45012;DHT22;63444;48.148;11.542;2023-04-24T05:03:13;10.40;99.90
45012;DHT22;63444;48.148;11.542;2023-04-24T05:05:39;10.40;99.90
45012;DHT22;63444;48.148;11.542;2023-04-24T05:08:09;10.60;99.90
45012;DHT22;63444;48.148;11.542;2023-04-24T05:10:35;10.40;99.90
45012;DHT22;63444;48.148;11.542;2023-04-24T05:13:02;10.50;99.90
45012;DHT22;63444;48.148;11.542;2023-04-24T05:15:28;10.50;99.90
45012;DHT22;63444;48.148;11.542;2023-04-24T05:17:54;10.40;99.90
45012;DHT22;63444;48.148;11.542;2023-04-24T05:20:20;10.40;99.90
45012;DHT22;63444;48.148;11.542;2023-04-24T05:22:45;10.40;99.90
45012;DHT22;63444;48.148;11.542;2023-04-24T05:25:11;10.30;99.90
45012;DHT22;63444;48.148;11.542;2023-04-24T05:27:37;10.30;99.90
45012;DHT22;63444;48.148;11.542;2023-04-24T05:30:04;10.40;99.90
45012;DHT22;63444;48.148;11.542;2023-04-24T05:32:30;10.30;99.90
45012;DHT22;63444;48.148;11.542;2023-04-24T05:34:55;10.30;99.90
45012;DHT22;63444;48.148;11.542;2023-04-24T05:37:21;10.30;99.90
45012;DHT22;63444;48.148;11.542;2023-04-24T05:39:47;10.30;99.90
45012;DHT22;63444;48.148;11.542;2023-04-24T05:42:12;10.40;99.90
45012;DHT22;63444;48.148;11.542;2023-04-24T05:44:38;10.60;99.90
45012;DHT22;63444;48.148;11.542;2023-04-24T05:47:03;10.40;99.90
45012;DHT22;63444;48.148;11.542;2023-04-24T05:49:29;10.50;99.90
45012;DHT22;63444;48.148;11.542;2023-04-24T05:51:55;10.40;99.90
45012;DHT22;63444;48.148;11.542;2023-04-24T05:54:20;10.40;99.90
45012;DHT22;63444;48.148;11.542;2023-04-24T05:56:46;10.50;99.90
45012;DHT22;63444;48.148;11.542;2023-04-24T05:59:12;10.40;99.90
45012;DHT22;63444;48.148;11.542;2023-04-24T06:01:37;10.50;99.90
45012;DHT22;63444;48.148;11.542;2023-04-24T06:04:03;10.50;99.90
45012;DHT22;63444;48.148;11.542;2023-04-24T06:06:29;10.50;99.90
45012;DHT22;63444;48.148;11.542;2023-04-24T06:08:55;10.50;99.90
45012;DHT22;63444;48.148;11.542;2023-04-24T06:11:21;10.60;99.90
45012;DHT22;63444;48.148;11.542;2023-04-24T06:13:46;10.60;99.90
45012;DHT22;63444;48.148;11.542;2023-04-24T06:16:12;10.70;99.90
45012;DHT22;63444;48.148;11.542;2023-04-24T06:18:37;10.70;99.90
45012;DHT22;63444;48.148;11.542;2023-04-24T06:21:03;10.80;99.90
45012;DHT22;63444;48.148;11.542;2023-04-24T06:23:29;10.80;99.90
45012;DHT22;63444;48.148;11.542;2023-04-24T06:25:57;10.90;99.90
45012;DHT22;63444;48.148;11.542;2023-04-24T06:28:23;10.90;99.90
45012;DHT22;63444;48.148;11.542;2023-04-24T06:30:48;10.80;99.90
45012;DHT22;63444;48.148;11.542;2023-04-24T06:33:14;10.80;99.90
45012;DHT22;63444;48.148;11.542;2023-04-24T06:35:40;10.80;99.90
45012;DHT22;63444;48.148;11.542;2023-04-24T06:38:05;10.80;99.90
45012;DHT22;63444;48.148;11.542;2023-04-24T06:40:31;10.90;99.90
45012;DHT22;63444;48.148;11.542;2023-04-24T06:42:57;11.00;99.90
45012;DHT22;63444;48.148;11.542;2023-04-24T06:45:23;11.10;99.90
45012;DHT22;63444;48.148;11.542;2023-04-24T06:47:49;11.10;99.90
45012;DHT22;63444;48.148;11.542;2023-04-24T06:50:14;11.10;99.90
45012;DHT22;63444;48.148;11.542;2023-04-24T06:52:40;11.20;99.90
45012;DHT22;63444;48.148;11.542;2023-04-24T06:55:06;11.20;99.90
45012;DHT22;63444;48.148;11.542;2023-04-24T06:57:32;11.20;99.90
45012;DHT22;63444;48.148;11.542;2023-04-24T06:59:58;11.30;99.90
45012;DHT22;63444;48.148;11.542;2023-04-24T07:02:24;11.40;99.90
45012;DHT22;63444;48.148;11.542;2023-04-24T07:04:50;11.50;99.90
45012;DHT22;63444;48.148;11.542;2023-04-24T07:07:15;11.60;99.90
45012;DHT22;63444;48.148;11.542;2023-04-24T07:09:42;11.70;99.90
45012;DHT22;63444;48.148;11.542;2023-04-24T07:12:08;11.70;99.90
45012;DHT22;63444;48.148;11.542;2023-04-24T07:14:36;11.70;99.90
45012;DHT22;63444;48.148;11.542;2023-04-24T07:17:03;11.80;99.90
45012;DHT22;63444;48.148;11.542;2023-04-24T07:19:28;11.90;99.90
45012;DHT22;63444;48.148;11.542;2023-04-24T07:21:54;12.00;99.90
45012;DHT22;63444;48.148;11.542;2023-04-24T07:24:20;11.80;99.90
45012;DHT22;63444;48.148;11.542;2023-04-24T07:26:46;11.80;99.90
45012;DHT22;63444;48.148;11.542;2023-04-24T07:29:12;11.80;99.90
45012;DHT22;63444;48.148;11.542;2023-04-24T07:31:38;11.70;99.90
45012;DHT22;63444;48.148;11.542;2023-04-24T07:34:04;11.70;99.90
45012;DHT22;63444;48.148;11.542;2023-04-24T07:36:29;11.70;99.90
45012;DHT22;63444;48.148;11.542;2023-04-24T07:39:09;12.00;99.90
45012;DHT22;63444;48.148;11.542;2023-04-24T07:41:40;12.00;99.90
45012;DHT22;63444;48.148;11.542;2023-04-24T07:44:06;12.00;99.90
45012;DHT22;63444;48.148;11.542;2023-04-24T07:46:32;12.10;99.90
45012;DHT22;63444;48.148;11.542;2023-04-24T07:48:58;12.00;99.90
45012;DHT22;63444;48.148;11.542;2023-04-24T07:51:25;11.90;99.90
45012;DHT22;63444;48.148;11.542;2023-04-24T07:53:53;11.80;99.90
45012;DHT22;63444;48.148;11.542;2023-04-24T07:56:20;11.80;99.90
45012;DHT22;63444;48.148;11.542;2023-04-24T07:58:46;11.80;99.90
45012;DHT22;63444;48.148;11.542;2023-04-24T08:01:11;12.00;99.90
45012;DHT22;63444;48.148;11.542;2023-04-24T08:03:37;11.80;99.90
45012;DHT22;63444;48.148;11.542;2023-04-24T08:06:03;11.80;99.90
45012;DHT22;63444;48.148;11.542;2023-04-24T08:08:28;12.00;99.90
45012;DHT22;63444;48.148;11.542;2023-04-24T08:10:54;12.10;99.90
45012;DHT22;63444;48.148;11.542;2023-04-24T08:13:20;12.10;99.90
45012;DHT22;63444;48.148;11.542;2023-04-24T08:15:46;12.10;99.90
45012;DHT22;63444;48.148;11.542;2023-04-24T08:18:11;12.10;99.90
45012;DHT22;63444;48.148;11.542;2023-04-24T08:20:39;12.10;99.90
45012;DHT22;63444;48.148;11.542;2023-04-24T08:23:04;12.00;99.90
45012;DHT22;63444;48.148;11.542;2023-04-24T08:25:30;12.00;99.90
45012;DHT22;63444;48.148;11.542;2023-04-24T08:27:56;11.90;99.90
45012;DHT22;63444;48.148;11.542;2023-04-24T08:30:21;11.90;99.90
45012;DHT22;63444;48.148;11.542;2023-04-24T08:32:47;11.90;99.90
45012;DHT22;63444;48.148;11.542;2023-04-24T08:35:13;11.80;99.90
45012;DHT22;63444;48.148;11.542;2023-04-24T08:37:39;11.80;99.90
45012;DHT22;63444;48.148;11.542;2023-04-24T08:40:09;11.80;99.90
45012;DHT22;63444;48.148;11.542;2023-04-24T08:42:38;11.70;99.90
45012;DHT22;63444;48.148;11.542;2023-04-24T08:45:04;11.60;99.90
45012;DHT22;63444;48.148;11.542;2023-04-24T08:47:31;11.60;99.90
45012;DHT22;63444;48.148;11.542;2023-04-24T08:49:58;11.60;99.90
45012;DHT22;63444;48.148;11.542;2023-04-24T08:52:25;11.60;99.90
45012;DHT22;63444;48.148;11.542;2023-04-24T08:54:52;11.70;99.90
45012;DHT22;63444;48.148;11.542;2023-04-24T08:57:19;11.70;99.90
45012;DHT22;63444;48.148;11.542;2023-04-24T08:59:45;11.70;99.90
45012;DHT22;63444;48.148;11.542;2023-04-24T09:02:29;11.60;99.90
45012;DHT22;63444;48.148;11.542;2023-04-24T09:05:13;11.60;99.90
45012;DHT22;63444;48.148;11.542;2023-04-24T09:08:01;11.50;99.90
45012;DHT22;63444;48.148;11.542;2023-04-24T09:10:27;11.50;99.90
45012;DHT22;63444;48.148;11.542;2023-04-24T09:12:56;11.30;99.90
45012;DHT22;63444;48.148;11.542;2023-04-24T09:15:24;11.30;99.90
45012;DHT22;63444;48.148;11.542;2023-04-24T09:17:50;11.30;99.90
45012;DHT22;63444;48.148;11.542;2023-04-24T09:20:25;11.40;99.90
45012;DHT22;63444;48.148;11.542;2023-04-24T09:22:54;11.40;99.90
45012;DHT22;63444;48.148;11.542;2023-04-24T09:25:30;11.50;99.90
45012;DHT22;63444;48.148;11.542;2023-04-24T09:28:06;11.50;99.90
45012;DHT22;63444;48.148;11.542;2023-04-24T09:30:34;11.60;99.90
45012;DHT22;63444;48.148;11.542;2023-04-24T09:33:10;11.70;99.90
45012;DHT22;63444;48.148;11.542;2023-04-24T09:35:36;11.70;99.90
45012;DHT22;63444;48.148;11.542;2023-04-24T09:38:02;11.80;99.90
45012;DHT22;63444;48.148;11.542;2023-04-24T09:40:27;11.90;99.90
45012;DHT22;63444;48.148;11.542;2023-04-24T09:42:55;12.00;99.90
45012;DHT22;63444;48.148;11.542;2023-04-24T09:45:26;12.00;99.90
45012;DHT22;63444;48.148;11.542;2023-04-24T09:47:53;12.10;99.90
45012;DHT22;63444;48.148;11.542;2023-04-24T09:50:21;12.20;99.90
45012;DHT22;63444;48.148;11.542;2023-04-24T09:52:57;12.30;99.90
45012;DHT22;63444;48.148;11.542;2023-04-24T09:55:22;12.40;99.90
45012;DHT22;63444;48.148;11.542;2023-04-24T10:00:27;12.40;99.90
45012;DHT22;63444;48.148;11.542;2023-04-24T10:03:03;12.40;99.90
45012;DHT22;63444;48.148;11.542;2023-04-24T10:05:36;12.50;99.90
45012;DHT22;63444;48.148;11.542;2023-04-24T10:08:10;12.40;99.90
45012;DHT22;63444;48.148;11.542;2023-04-24T10:10:42;12.50;99.90
45012;DHT22;63444;48.148;11.542;2023-04-24T10:13:09;12.70;99.90
45012;DHT22;63444;48.148;11.542;2023-04-24T10:15:36;12.70;99.90
45012;DHT22;63444;48.148;11.542;2023-04-24T10:18:04;12.80;99.90
45012;DHT22;63444;48.148;11.542;2023-04-24T10:20:30;12.90;99.90
45012;DHT22;63444;48.148;11.542;2023-04-24T10:22:57;12.90;99.90
45012;DHT22;63444;48.148;11.542;2023-04-24T10:25:25;12.90;99.90
45012;DHT22;63444;48.148;11.542;2023-04-24T10:27:52;12.90;99.90
45012;DHT22;63444;48.148;11.542;2023-04-24T10:30:19;12.90;99.90
45012;DHT22;63444;48.148;11.542;2023-04-24T10:32:45;13.00;99.90
45012;DHT22;63444;48.148;11.542;2023-04-24T10:35:15;13.10;99.90
45012;DHT22;63444;48.148;11.542;2023-04-24T10:37:46;13.20;99.90
45012;DHT22;63444;48.148;11.542;2023-04-24T10:40:18;13.20;99.90
45012;DHT22;63444;48.148;11.542;2023-04-24T10:42:47;13.20;99.90
45012;DHT22;63444;48.148;11.542;2023-04-24T10:45:17;12.90;99.90
45012;DHT22;63444;48.148;11.542;2023-04-24T10:47:57;13.00;99.90
45012;DHT22;63444;48.148;11.542;2023-04-24T10:50:25;13.00;99.90
45012;DHT22;63444;48.148;11.542;2023-04-24T10:52:52;13.00;99.90
45012;DHT22;63444;48.148;11.542;2023-04-24T10:55:39;12.80;99.90
45012;DHT22;63444;48.148;11.542;2023-04-24T10:58:05;12.40;99.90
45012;DHT22;63444;48.148;11.542;2023-04-24T11:00:30;12.00;99.90
45012;DHT22;63444;48.148;11.542;2023-04-24T11:02:57;11.70;99.90
45012;DHT22;63444;48.148;11.542;2023-04-24T11:06:10;11.60;99.90
45012;DHT22;63444;48.148;11.542;2023-04-24T11:08:42;11.60;99.90
45012;DHT22;63444;48.148;11.542;2023-04-24T11:11:10;11.60;99.90
45012;DHT22;63444;48.148;11.542;2023-04-24T11:19:02;12.10;99.90
45012;DHT22;63444;48.148;11.542;2023-04-24T11:22:17;12.40;99.90
45012;DHT22;63444;48.148;11.542;2023-04-24T11:29:44;13.10;99.90
45012;DHT22;63444;48.148;11.542;2023-04-24T11:35:03;13.20;99.90
45012;DHT22;63444;48.148;11.542;2023-04-24T11:37:39;13.30;99.90
45012;DHT22;63444;48.148;11.542;2023-04-24T11:40:06;13.30;99.90
45012;DHT22;63444;48.148;11.542;2023-04-24T11:42:40;13.30;99.90
45012;DHT22;63444;48.148;11.542;2023-04-24T11:45:12;13.20;99.90
45012;DHT22;63444;48.148;11.542;2023-04-24T11:47:38;13.20;99.90
45012;DHT22;63444;48.148;11.542;2023-04-24T11:50:06;13.30;99.90
45012;DHT22;63444;48.148;11.542;2023-04-24T11:52:36;13.40;99.90
45012;DHT22;63444;48.148;11.542;2023-04-24T11:55:02;13.50;99.90
45012;DHT22;63444;48.148;11.542;2023-04-24T11:57:29;13.60;99.90
45012;DHT22;63444;48.148;11.542;2023-04-24T12:00:01;13.70;99.90
45012;DHT22;63444;48.148;11.542;2023-04-24T12:02:28;13.70;99.90
45012;DHT22;63444;48.148;11.542;2023-04-24T12:04:54;13.60;99.90
45012;DHT22;63444;48.148;11.542;2023-04-24T12:07:20;13.60;99.90
45012;DHT22;63444;48.148;11.542;2023-04-24T12:09:59;13.80;99.90
45012;DHT22;63444;48.148;11.542;2023-04-24T12:12:26;13.80;99.90
45012;DHT22;63444;48.148;11.542;2023-04-24T12:14:57;13.80;99.90
45012;DHT22;63444;48.148;11.542;2023-04-24T12:17:28;13.90;99.90
45012;DHT22;63444;48.148;11.542;2023-04-24T12:20:04;14.00;99.90
45012;DHT22;63444;48.148;11.542;2023-04-24T12:22:50;14.00;99.90
45012;DHT22;63444;48.148;11.542;2023-04-24T12:25:18;13.90;99.90
45012;DHT22;63444;48.148;11.542;2023-04-24T12:27:44;14.00;99.90
45012;DHT22;63444;48.148;11.542;2023-04-24T12:30:15;13.90;99.90
45012;DHT22;63444;48.148;11.542;2023-04-24T12:32:50;14.00;99.90
45012;DHT22;63444;48.148;11.542;2023-04-24T12:35:24;14.00;99.90
45012;DHT22;63444;48.148;11.542;2023-04-24T12:37:50;14.00;99.90
45012;DHT22;63444;48.148;11.542;2023-04-24T12:40:17;14.00;99.90
45012;DHT22;63444;48.148;11.542;2023-04-24T12:42:48;14.10;99.90
45012;DHT22;63444;48.148;11.542;2023-04-24T12:45:15;14.30;99.80
45012;DHT22;63444;48.148;11.542;2023-04-24T12:47:42;14.40;99.40
45012;DHT22;63444;48.148;11.542;2023-04-24T12:50:10;14.60;99.90
45012;DHT22;63444;48.148;11.542;2023-04-24T12:52:36;14.50;98.50
45012;DHT22;63444;48.148;11.542;2023-04-24T12:55:02;14.50;97.80
45012;DHT22;63444;48.148;11.542;2023-04-24T12:57:29;14.50;98.50
45012;DHT22;63444;48.148;11.542;2023-04-24T12:59:57;14.50;98.30
45012;DHT22;63444;48.148;11.542;2023-04-24T13:02:23;14.70;96.60
45012;DHT22;63444;48.148;11.542;2023-04-24T13:04:50;14.60;94.90
45012;DHT22;63444;48.148;11.542;2023-04-24T13:07:16;14.60;95.00
45012;DHT22;63444;48.148;11.542;2023-04-24T13:09:45;14.60;95.60
45012;DHT22;63444;48.148;11.542;2023-04-24T13:12:12;14.60;95.70
45012;DHT22;63444;48.148;11.542;2023-04-24T13:14:37;14.70;96.20
45012;DHT22;63444;48.148;11.542;2023-04-24T13:17:04;14.60;96.90
45012;DHT22;63444;48.148;11.542;2023-04-24T13:19:35;14.60;97.70
45012;DHT22;63444;48.148;11.542;2023-04-24T13:22:01;14.50;97.80
45012;DHT22;63444;48.148;11.542;2023-04-24T13:24:27;14.30;97.70
45012;DHT22;63444;48.148;11.542;2023-04-24T13:26:53;14.20;96.80
45012;DHT22;63444;48.148;11.542;2023-04-24T13:29:19;14.30;97.40
45012;DHT22;63444;48.148;11.542;2023-04-24T13:31:46;14.20;97.40
45012;DHT22;63444;48.148;11.542;2023-04-24T13:34:13;14.20;97.40
45012;DHT22;63444;48.148;11.542;2023-04-24T13:36:38;14.20;97.40
45012;DHT22;63444;48.148;11.542;2023-04-24T13:39:05;14.30;97.00
45012;DHT22;63444;48.148;11.542;2023-04-24T13:41:33;14.40;96.50
45012;DHT22;63444;48.148;11.542;2023-04-24T13:43:59;14.40;96.10
45012;DHT22;63444;48.148;11.542;2023-04-24T13:46:24;14.20;95.50
45012;DHT22;63444;48.148;11.542;2023-04-24T13:48:50;14.30;95.70
45012;DHT22;63444;48.148;11.542;2023-04-24T13:51:16;14.20;94.80
45012;DHT22;63444;48.148;11.542;2023-04-24T13:53:41;14.10;94.80
45012;DHT22;63444;48.148;11.542;2023-04-24T13:56:07;14.00;94.00
45012;DHT22;63444;48.148;11.542;2023-04-24T13:58:34;14.00;93.60
45012;DHT22;63444;48.148;11.542;2023-04-24T14:01:01;14.00;92.60
45012;DHT22;63444;48.148;11.542;2023-04-24T14:03:27;14.10;92.20
45012;DHT22;63444;48.148;11.542;2023-04-24T14:05:52;14.00;92.60
45012;DHT22;63444;48.148;11.542;2023-04-24T14:08:18;14.10;92.60
45012;DHT22;63444;48.148;11.542;2023-04-24T14:10:43;14.10;92.80
45012;DHT22;63444;48.148;11.542;2023-04-24T14:13:09;14.10;93.70
45012;DHT22;63444;48.148;11.542;2023-04-24T14:15:37;14.20;94.60
45012;DHT22;63444;48.148;11.542;2023-04-24T14:18:03;14.10;95.20
45012;DHT22;63444;48.148;11.542;2023-04-24T14:20:29;14.10;95.30
45012;DHT22;63444;48.148;11.542;2023-04-24T14:22:54;14.20;95.20
45012;DHT22;63444;48.148;11.542;2023-04-24T14:25:20;14.20;95.00
45012;DHT22;63444;48.148;11.542;2023-04-24T14:27:47;14.30;94.80
45012;DHT22;63444;48.148;11.542;2023-04-24T14:30:13;14.30;95.00
45012;DHT22;63444;48.148;11.542;2023-04-24T14:32:39;14.40;94.10
45012;DHT22;63444;48.148;11.542;2023-04-24T14:35:06;14.40;94.00
45012;DHT22;63444;48.148;11.542;2023-04-24T14:37:32;14.50;93.30
45012;DHT22;63444;48.148;11.542;2023-04-24T14:39:58;14.50;93.20
45012;DHT22;63444;48.148;11.542;2023-04-24T14:42:23;14.60;93.00
45012;DHT22;63444;48.148;11.542;2023-04-24T14:44:49;14.40;92.80
45012;DHT22;63444;48.148;11.542;2023-04-24T14:47:16;14.40;92.60
45012;DHT22;63444;48.148;11.542;2023-04-24T14:49:43;14.40;92.20
45012;DHT22;63444;48.148;11.542;2023-04-24T14:52:09;14.30;92.30
45012;DHT22;63444;48.148;11.542;2023-04-24T14:54:35;14.30;92.30
45012;DHT22;63444;48.148;11.542;2023-04-24T14:57:00;14.30;92.00
45012;DHT22;63444;48.148;11.542;2023-04-24T14:59:27;14.40;92.10
45012;DHT22;63444;48.148;11.542;2023-04-24T15:01:53;14.40;91.30
45012;DHT22;63444;48.148;11.542;2023-04-24T15:04:25;14.10;91.20
45012;DHT22;63444;48.148;11.542;2023-04-24T15:06:52;14.10;91.60
45012;DHT22;63444;48.148;11.542;2023-04-24T15:09:21;14.10;91.80
45012;DHT22;63444;48.148;11.542;2023-04-24T15:11:48;14.20;91.50
45012;DHT22;63444;48.148;11.542;2023-04-24T15:14:15;14.20;90.80
45012;DHT22;63444;48.148;11.542;2023-04-24T15:16:41;14.20;90.70
45012;DHT22;63444;48.148;11.542;2023-04-24T15:19:06;14.20;90.80
45012;DHT22;63444;48.148;11.542;2023-04-24T15:21:32;14.10;90.30
45012;DHT22;63444;48.148;11.542;2023-04-24T15:23:58;14.20;90.50
45012;DHT22;63444;48.148;11.542;2023-04-24T15:26:24;14.20;90.60
45012;DHT22;63444;48.148;11.542;2023-04-24T15:28:51;14.30;90.60
45012;DHT22;63444;48.148;11.542;2023-04-24T15:31:17;14.30;90.80